sensor_id;sensor_type;location;lat;lon;timestamp;P1;durP1;ratioP1;P2;durP2;ratioP2
81209;SDS011;70685;52.496;13.420;2023-08-06T00:01:25;7.22;;;6.63;;
81209;SDS011;70685;52.496;13.420;2023-08-06T00:03:50;6.72;;;6.25;;
81209;SDS011;70685;52.496;13.420;2023-08-06T00:06:16;7.80;;;6.82;;
81209;SDS011;70685;52.496;13.420;2023-08-06T00:08:44;6.95;;;6.45;;
81209;SDS011;70685;52.496;13.420;2023-08-06T00:11:10;8.85;;;8.13;;
81209;SDS011;70685;52.496;13.420;2023-08-06T00:13:35;8.88;;;8.18;;
81209;SDS011;70685;52.496;13.420;2023-08-06T00:16:08;7.70;;;6.70;;
81209;SDS011;70685;52.496;13.420;2023-08-06T00:18:34;7.03;;;6.53;;
81209;SDS011;70685;52.496;13.420;2023-08-06T00:21:02;8.05;;;7.38;;
81209;SDS011;70685;52.496;13.420;2023-08-06T00:23:30;8.73;;;8.05;;
81209;SDS011;70685;52.496;13.420;2023-08-06T00:25:56;8.57;;;7.43;;
81209;SDS011;70685;52.496;13.420;2023-08-06T00:28:22;7.95;;;7.45;;
81209;SDS011;70685;52.496;13.420;2023-08-06T00:30:57;8.85;;;8.10;;
81209;SDS011;70685;52.496;13.420;2023-08-06T00:33:23;9.13;;;8.35;;
81209;SDS011;70685;52.496;13.420;2023-08-06T00:35:51;7.55;;;7.05;;
81209;SDS011;70685;52.496;13.420;2023-08-06T00:38:17;8.50;;;7.80;;
81209;SDS011;70685;52.496;13.420;2023-08-06T00:40:43;8.55;;;7.25;;
81209;SDS011;70685;52.496;13.420;2023-08-06T00:43:09;7.57;;;7.07;;
81209;SDS011;70685;52.496;13.420;2023-08-06T00:45:35;7.82;;;7.32;;
81209;SDS011;70685;52.496;13.420;2023-08-06T00:48:06;8.75;;;7.97;;
81209;SDS011;70685;52.496;13.420;2023-08-06T00:50:32;7.78;;;7.18;;
81209;SDS011;70685;52.496;13.420;2023-08-06T00:53:00;8.15;;;7.55;;
81209;SDS011;70685;52.496;13.420;2023-08-06T00:55:27;7.95;;;7.45;;
81209;SDS011;70685;52.496;13.420;2023-08-06T00:57:53;8.00;;;7.38;;
81209;SDS011;70685;52.496;13.420;2023-08-06T01:00:21;11.07;;;9.00;;
81209;SDS011;70685;52.496;13.420;2023-08-06T01:02:50;7.90;;;7.35;;
81209;SDS011;70685;52.496;13.420;2023-08-06T01:05:16;8.68;;;7.72;;
81209;SDS011;70685;52.496;13.420;2023-08-06T01:15:51;7.35;;;6.82;;
81209;SDS011;70685;52.496;13.420;2023-08-06T01:18:23;8.80;;;7.43;;
81209;SDS011;70685;52.496;13.420;2023-08-06T01:20:51;8.02;;;7.50;;
81209;SDS011;70685;52.496;13.420;2023-08-06T01:23:17;7.65;;;7.15;;
81209;SDS011;70685;52.496;13.420;2023-08-06T01:28:36;7.43;;;6.82;;
81209;SDS011;70685;52.496;13.420;2023-08-06T01:31:11;8.05;;;7.38;;
81209;SDS011;70685;52.496;13.420;2023-08-06T01:33:41;8.07;;;6.97;;
81209;SDS011;70685;52.496;13.420;2023-08-06T01:36:12;7.70;;;7.20;;
81209;SDS011;70685;52.496;13.420;2023-08-06T01:38:40;8.00;;;7.13;;
81209;SDS011;70685;52.496;13.420;2023-08-06T01:41:06;7.60;;;7.20;;
81209;SDS011;70685;52.496;13.420;2023-08-06T01:43:31;7.97;;;7.07;;
81209;SDS011;70685;52.496;13.420;2023-08-06T01:45:59;7.13;;;6.72;;
81209;SDS011;70685;52.496;13.420;2023-08-06T01:48:25;8.23;;;7.53;;
81209;SDS011;70685;52.496;13.420;2023-08-06T01:50:53;7.53;;;7.10;;
81209;SDS011;70685;52.496;13.420;2023-08-06T01:53:18;8.35;;;7.75;;
81209;SDS011;70685;52.496;13.420;2023-08-06T01:55:49;8.93;;;7.97;;
81209;SDS011;70685;52.496;13.420;2023-08-06T01:58:15;8.70;;;7.97;;
81209;SDS011;70685;52.496;13.420;2023-08-06T02:00:41;8.13;;;7.63;;
81209;SDS011;70685;52.496;13.420;2023-08-06T02:03:07;9.07;;;8.23;;
81209;SDS011;70685;52.496;13.420;2023-08-06T02:05:35;9.38;;;8.60;;
81209;SDS011;70685;52.496;13.420;2023-08-06T02:08:00;9.05;;;8.45;;
81209;SDS011;70685;52.496;13.420;2023-08-06T02:10:26;8.52;;;7.95;;
81209;SDS011;70685;52.496;13.420;2023-08-06T02:12:59;9.63;;;8.85;;
81209;SDS011;70685;52.496;13.420;2023-08-06T02:15:25;9.90;;;9.10;;
81209;SDS011;70685;52.496;13.420;2023-08-06T02:17:50;9.38;;;8.68;;
81209;SDS011;70685;52.496;13.420;2023-08-06T02:20:16;9.50;;;8.85;;
81209;SDS011;70685;52.496;13.420;2023-08-06T02:22:42;9.43;;;8.75;;
81209;SDS011;70685;52.496;13.420;2023-08-06T02:25:10;10.05;;;9.35;;
81209;SDS011;70685;52.496;13.420;2023-08-06T02:27:37;10.80;;;9.85;;
81209;SDS011;70685;52.496;13.420;2023-08-06T02:30:05;10.65;;;9.75;;
81209;SDS011;70685;52.496;13.420;2023-08-06T02:32:34;9.65;;;8.88;;
81209;SDS011;70685;52.496;13.420;2023-08-06T02:35:03;10.00;;;9.13;;
81209;SDS011;70685;52.496;13.420;2023-08-06T02:37:28;10.80;;;9.90;;
81209;SDS011;70685;52.496;13.420;2023-08-06T02:39:56;10.52;;;9.73;;
81209;SDS011;70685;52.496;13.420;2023-08-06T02:42:22;9.98;;;9.02;;
81209;SDS011;70685;52.496;13.420;2023-08-06T02:44:52;9.73;;;9.00;;
81209;SDS011;70685;52.496;13.420;2023-08-06T02:47:21;10.48;;;9.77;;
81209;SDS011;70685;52.496;13.420;2023-08-06T02:49:52;9.57;;;8.87;;
81209;SDS011;70685;52.496;13.420;2023-08-06T02:52:17;10.40;;;9.50;;
81209;SDS011;70685;52.496;13.420;2023-08-06T02:54:43;9.32;;;8.73;;
81209;SDS011;70685;52.496;13.420;2023-08-06T02:57:09;8.48;;;7.97;;
81209;SDS011;70685;52.496;13.420;2023-08-06T02:59:35;8.35;;;7.65;;
81209;SDS011;70685;52.496;13.420;2023-08-06T03:02:02;7.97;;;7.35;;
81209;SDS011;70685;52.496;13.420;2023-08-06T03:04:28;9.85;;;9.15;;
81209;SDS011;70685;52.496;13.420;2023-08-06T03:06:54;10.27;;;9.32;;
81209;SDS011;70685;52.496;13.420;2023-08-06T03:09:22;9.63;;;8.67;;
81209;SDS011;70685;52.496;13.420;2023-08-06T03:11:47;9.23;;;8.13;;
81209;SDS011;70685;52.496;13.420;2023-08-06T03:14:13;8.63;;;7.97;;
81209;SDS011;70685;52.496;13.420;2023-08-06T03:16:39;7.70;;;7.18;;
81209;SDS011;70685;52.496;13.420;2023-08-06T03:19:04;7.78;;;7.28;;
81209;SDS011;70685;52.496;13.420;2023-08-06T03:21:32;8.35;;;7.72;;
81209;SDS011;70685;52.496;13.420;2023-08-06T03:23:58;9.27;;;7.32;;
81209;SDS011;70685;52.496;13.420;2023-08-06T03:26:26;7.90;;;7.30;;
81209;SDS011;70685;52.496;13.420;2023-08-06T03:28:51;8.02;;;7.32;;
81209;SDS011;70685;52.496;13.420;2023-08-06T03:31:19;8.05;;;7.20;;
81209;SDS011;70685;52.496;13.420;2023-08-06T03:33:45;7.65;;;7.13;;
81209;SDS011;70685;52.496;13.420;2023-08-06T03:36:11;8.60;;;7.90;;
81209;SDS011;70685;52.496;13.420;2023-08-06T03:38:36;7.90;;;6.78;;
81209;SDS011;70685;52.496;13.420;2023-08-06T03:41:02;7.18;;;6.70;;
81209;SDS011;70685;52.496;13.420;2023-08-06T03:43:30;8.03;;;6.57;;
81209;SDS011;70685;52.496;13.420;2023-08-06T03:45:56;8.15;;;7.38;;
81209;SDS011;70685;52.496;13.420;2023-08-06T03:48:21;7.85;;;7.25;;
81209;SDS011;70685;52.496;13.420;2023-08-06T03:50:47;9.25;;;8.57;;
81209;SDS011;70685;52.496;13.420;2023-08-06T03:53:13;9.15;;;8.27;;
81209;SDS011;70685;52.496;13.420;2023-08-06T03:55:38;9.60;;;8.80;;
81209;SDS011;70685;52.496;13.420;2023-08-06T03:58:04;9.25;;;8.65;;
81209;SDS011;70685;52.496;13.420;2023-08-06T04:00:32;8.50;;;7.70;;
81209;SDS011;70685;52.496;13.420;2023-08-06T04:03:00;8.45;;;7.85;;
81209;SDS011;70685;52.496;13.420;2023-08-06T04:05:25;9.30;;;8.55;;
81209;SDS011;70685;52.496;13.420;2023-08-06T04:07:53;7.85;;;7.25;;
81209;SDS011;70685;52.496;13.420;2023-08-06T04:10:21;8.80;;;8.20;;
81209;SDS011;70685;52.496;13.420;2023-08-06T04:12:49;8.95;;;8.15;;
81209;SDS011;70685;52.496;13.420;2023-08-06T04:15:14;8.60;;;7.95;;
81209;SDS011;70685;52.496;13.420;2023-08-06T04:17:42;9.57;;;8.80;;
81209;SDS011;70685;52.496;13.420;2023-08-06T04:20:10;10.43;;;9.52;;
81209;SDS011;70685;52.496;13.420;2023-08-06T04:22:36;8.43;;;7.70;;
81209;SDS011;70685;52.496;13.420;2023-08-06T04:25:06;9.65;;;8.85;;
81209;SDS011;70685;52.496;13.420;2023-08-06T04:27:36;9.35;;;8.50;;
81209;SDS011;70685;52.496;13.420;2023-08-06T04:30:08;10.02;;;8.98;;
81209;SDS011;70685;52.496;13.420;2023-08-06T04:32:37;7.93;;;7.35;;
81209;SDS011;70685;52.496;13.420;2023-08-06T04:35:05;9.13;;;8.43;;
81209;SDS011;70685;52.496;13.420;2023-08-06T04:37:32;9.35;;;8.65;;
81209;SDS011;70685;52.496;13.420;2023-08-06T04:39:57;8.27;;;7.72;;
81209;SDS011;70685;52.496;13.420;2023-08-06T04:42:23;8.93;;;8.20;;
81209;SDS011;70685;52.496;13.420;2023-08-06T04:44:49;8.75;;;8.15;;
81209;SDS011;70685;52.496;13.420;2023-08-06T04:47:17;9.77;;;8.97;;
81209;SDS011;70685;52.496;13.420;2023-08-06T04:49:43;8.50;;;7.85;;
81209;SDS011;70685;52.496;13.420;2023-08-06T04:52:11;8.30;;;7.70;;
81209;SDS011;70685;52.496;13.420;2023-08-06T04:54:39;8.52;;;7.72;;
81209;SDS011;70685;52.496;13.420;2023-08-06T04:57:05;8.70;;;7.95;;
81209;SDS011;70685;52.496;13.420;2023-08-06T04:59:30;7.82;;;7.35;;
81209;SDS011;70685;52.496;13.420;2023-08-06T05:01:58;8.90;;;8.30;;
81209;SDS011;70685;52.496;13.420;2023-08-06T05:04:24;8.55;;;7.82;;
81209;SDS011;70685;52.496;13.420;2023-08-06T05:06:52;8.98;;;8.35;;
81209;SDS011;70685;52.496;13.420;2023-08-06T05:09:17;8.13;;;7.40;;
81209;SDS011;70685;52.496;13.420;2023-08-06T05:11:46;8.88;;;8.23;;
81209;SDS011;70685;52.496;13.420;2023-08-06T05:14:12;8.73;;;8.02;;
81209;SDS011;70685;52.496;13.420;2023-08-06T05:16:42;7.85;;;7.18;;
81209;SDS011;70685;52.496;13.420;2023-08-06T05:19:08;7.50;;;6.97;;
81209;SDS011;70685;52.496;13.420;2023-08-06T05:21:34;7.25;;;6.57;;
81209;SDS011;70685;52.496;13.420;2023-08-06T05:23:59;7.60;;;7.20;;
81209;SDS011;70685;52.496;13.420;2023-08-06T05:26:25;7.45;;;6.85;;
81209;SDS011;70685;52.496;13.420;2023-08-06T05:28:51;7.13;;;6.53;;
81209;SDS011;70685;52.496;13.420;2023-08-06T05:31:16;6.85;;;6.25;;
81209;SDS011;70685;52.496;13.420;2023-08-06T05:33:42;6.68;;;6.05;;
81209;SDS011;70685;52.496;13.420;2023-08-06T05:36:07;6.85;;;6.25;;
81209;SDS011;70685;52.496;13.420;2023-08-06T05:38:35;6.93;;;6.43;;
81209;SDS011;70685;52.496;13.420;2023-08-06T05:41:03;6.60;;;6.10;;
81209;SDS011;70685;52.496;13.420;2023-08-06T05:43:31;8.00;;;7.40;;
81209;SDS011;70685;52.496;13.420;2023-08-06T05:45:56;7.32;;;6.80;;
81209;SDS011;70685;52.496;13.420;2023-08-06T05:48:25;6.70;;;6.07;;
81209;SDS011;70685;52.496;13.420;2023-08-06T05:50:51;6.95;;;6.55;;
81209;SDS011;70685;52.496;13.420;2023-08-06T05:53:17;6.72;;;6.38;;
81209;SDS011;70685;52.496;13.420;2023-08-06T05:55:43;5.35;;;5.03;;
81209;SDS011;70685;52.496;13.420;2023-08-06T05:58:12;6.00;;;5.45;;
81209;SDS011;70685;52.496;13.420;2023-08-06T06:00:42;5.35;;;4.88;;
81209;SDS011;70685;52.496;13.420;2023-08-06T06:03:15;5.47;;;4.97;;
81209;SDS011;70685;52.496;13.420;2023-08-06T06:05:41;5.00;;;4.80;;
81209;SDS011;70685;52.496;13.420;2023-08-06T06:08:09;5.65;;;5.32;;
81209;SDS011;70685;52.496;13.420;2023-08-06T06:10:36;5.65;;;5.20;;
81209;SDS011;70685;52.496;13.420;2023-08-06T06:13:04;6.10;;;5.55;;
81209;SDS011;70685;52.496;13.420;2023-08-06T06:15:30;6.15;;;5.25;;
81209;SDS011;70685;52.496;13.420;2023-08-06T06:17:56;5.18;;;4.88;;
81209;SDS011;70685;52.496;13.420;2023-08-06T06:20:24;6.10;;;5.75;;
81209;SDS011;70685;52.496;13.420;2023-08-06T06:22:49;5.47;;;5.18;;
81209;SDS011;70685;52.496;13.420;2023-08-06T06:25:15;6.25;;;5.72;;
81209;SDS011;70685;52.496;13.420;2023-08-06T06:27:41;6.53;;;6.05;;
81209;SDS011;70685;52.496;13.420;2023-08-06T06:30:06;6.90;;;6.25;;
81209;SDS011;70685;52.496;13.420;2023-08-06T06:32:33;6.03;;;5.72;;
81209;SDS011;70685;52.496;13.420;2023-08-06T06:34:59;6.40;;;5.97;;
81209;SDS011;70685;52.496;13.420;2023-08-06T06:37:25;6.25;;;5.75;;
81209;SDS011;70685;52.496;13.420;2023-08-06T06:39:53;6.70;;;6.30;;
81209;SDS011;70685;52.496;13.420;2023-08-06T06:42:19;7.35;;;6.85;;
81209;SDS011;70685;52.496;13.420;2023-08-06T06:44:47;9.50;;;8.27;;
81209;SDS011;70685;52.496;13.420;2023-08-06T06:49:42;8.95;;;8.25;;
81209;SDS011;70685;52.496;13.420;2023-08-06T06:52:07;8.38;;;7.70;;
81209;SDS011;70685;52.496;13.420;2023-08-06T06:54:33;7.28;;;6.78;;
81209;SDS011;70685;52.496;13.420;2023-08-06T06:56:59;8.07;;;7.38;;
81209;SDS011;70685;52.496;13.420;2023-08-06T06:59:27;9.23;;;8.63;;
81209;SDS011;70685;52.496;13.420;2023-08-06T07:01:55;9.68;;;8.88;;
81209;SDS011;70685;52.496;13.420;2023-08-06T07:04:25;8.75;;;7.70;;
81209;SDS011;70685;52.496;13.420;2023-08-06T07:06:51;7.40;;;6.97;;
81209;SDS011;70685;52.496;13.420;2023-08-06T07:09:17;8.48;;;7.88;;
81209;SDS011;70685;52.496;13.420;2023-08-06T07:11:42;7.65;;;6.75;;
81209;SDS011;70685;52.496;13.420;2023-08-06T07:14:09;7.63;;;7.13;;
81209;SDS011;70685;52.496;13.420;2023-08-06T07:16:37;6.80;;;6.40;;
81209;SDS011;70685;52.496;13.420;2023-08-06T07:19:02;6.70;;;6.30;;
81209;SDS011;70685;52.496;13.420;2023-08-06T07:21:33;6.53;;;6.17;;
81209;SDS011;70685;52.496;13.420;2023-08-06T07:24:01;6.63;;;6.22;;
81209;SDS011;70685;52.496;13.420;2023-08-06T07:26:26;7.15;;;6.65;;
81209;SDS011;70685;52.496;13.420;2023-08-06T07:28:52;8.70;;;7.95;;
81209;SDS011;70685;52.496;13.420;2023-08-06T07:31:18;8.40;;;7.80;;
81209;SDS011;70685;52.496;13.420;2023-08-06T07:33:43;8.35;;;7.85;;
81209;SDS011;70685;52.496;13.420;2023-08-06T07:36:12;7.50;;;7.00;;
81209;SDS011;70685;52.496;13.420;2023-08-06T07:38:51;13.88;;;12.52;;
81209;SDS011;70685;52.496;13.420;2023-08-06T07:41:24;8.80;;;8.02;;
81209;SDS011;70685;52.496;13.420;2023-08-06T07:46:20;7.72;;;7.22;;
81209;SDS011;70685;52.496;13.420;2023-08-06T07:48:48;7.13;;;6.57;;
81209;SDS011;70685;52.496;13.420;2023-08-06T07:51:16;8.00;;;7.40;;
81209;SDS011;70685;52.496;13.420;2023-08-06T07:53:42;7.70;;;7.13;;
81209;SDS011;70685;52.496;13.420;2023-08-06T07:56:07;7.32;;;6.80;;
81209;SDS011;70685;52.496;13.420;2023-08-06T07:58:38;6.97;;;6.43;;
81209;SDS011;70685;52.496;13.420;2023-08-06T08:01:03;8.05;;;7.35;;
81209;SDS011;70685;52.496;13.420;2023-08-06T08:03:36;7.65;;;7.15;;
81209;SDS011;70685;52.496;13.420;2023-08-06T08:06:04;8.88;;;7.90;;
81209;SDS011;70685;52.496;13.420;2023-08-06T08:08:29;8.80;;;7.70;;
81209;SDS011;70685;52.496;13.420;2023-08-06T08:10:57;7.70;;;7.15;;
81209;SDS011;70685;52.496;13.420;2023-08-06T08:13:25;9.82;;;8.93;;
81209;SDS011;70685;52.496;13.420;2023-08-06T08:15:55;7.80;;;7.20;;
81209;SDS011;70685;52.496;13.420;2023-08-06T08:18:27;8.63;;;8.05;;
81209;SDS011;70685;52.496;13.420;2023-08-06T08:20:56;9.93;;;9.13;;
81209;SDS011;70685;52.496;13.420;2023-08-06T08:23:24;8.75;;;8.05;;
81209;SDS011;70685;52.496;13.420;2023-08-06T08:25:50;7.77;;;7.27;;
81209;SDS011;70685;52.496;13.420;2023-08-06T08:28:18;7.90;;;7.40;;
81209;SDS011;70685;52.496;13.420;2023-08-06T08:30:47;11.40;;;10.35;;
81209;SDS011;70685;52.496;13.420;2023-08-06T08:33:13;8.45;;;7.85;;
81209;SDS011;70685;52.496;13.420;2023-08-06T08:35:38;16.63;;;14.95;;
81209;SDS011;70685;52.496;13.420;2023-08-06T08:38:05;12.50;;;10.90;;
81209;SDS011;70685;52.496;13.420;2023-08-06T08:40:33;8.10;;;7.57;;
81209;SDS011;70685;52.496;13.420;2023-08-06T08:43:19;9.38;;;8.77;;
81209;SDS011;70685;52.496;13.420;2023-08-06T08:45:50;7.25;;;6.75;;
81209;SDS011;70685;52.496;13.420;2023-08-06T08:48:17;7.85;;;7.28;;
81209;SDS011;70685;52.496;13.420;2023-08-06T08:50:44;8.82;;;8.18;;
81209;SDS011;70685;52.496;13.420;2023-08-06T08:53:12;8.57;;;7.88;;
81209;SDS011;70685;52.496;13.420;2023-08-06T08:55:43;10.18;;;9.27;;
81209;SDS011;70685;52.496;13.420;2023-08-06T08:58:11;13.45;;;12.20;;
81209;SDS011;70685;52.496;13.420;2023-08-06T09:00:37;8.38;;;7.88;;
81209;SDS011;70685;52.496;13.420;2023-08-06T09:05:34;10.88;;;10.07;;
81209;SDS011;70685;52.496;13.420;2023-08-06T09:08:04;10.80;;;10.10;;
81209;SDS011;70685;52.496;13.420;2023-08-06T09:10:30;10.23;;;9.52;;
81209;SDS011;70685;52.496;13.420;2023-08-06T09:12:57;9.82;;;9.07;;
81209;SDS011;70685;52.496;13.420;2023-08-06T09:15:25;9.27;;;8.57;;
81209;SDS011;70685;52.496;13.420;2023-08-06T09:17:52;10.00;;;9.25;;
81209;SDS011;70685;52.496;13.420;2023-08-06T09:20:21;9.02;;;8.20;;
81209;SDS011;70685;52.496;13.420;2023-08-06T09:22:47;8.43;;;7.88;;
81209;SDS011;70685;52.496;13.420;2023-08-06T09:25:23;9.55;;;8.88;;
81209;SDS011;70685;52.496;13.420;2023-08-06T09:27:50;10.50;;;9.70;;
81209;SDS011;70685;52.496;13.420;2023-08-06T09:30:29;15.30;;;13.95;;
81209;SDS011;70685;52.496;13.420;2023-08-06T09:32:56;17.15;;;15.55;;
81209;SDS011;70685;52.496;13.420;2023-08-06T09:35:30;10.63;;;9.85;;
81209;SDS011;70685;52.496;13.420;2023-08-06T09:38:08;10.18;;;9.40;;
81209;SDS011;70685;52.496;13.420;2023-08-06T09:43:01;10.38;;;9.68;;
81209;SDS011;70685;52.496;13.420;2023-08-06T09:45:33;9.32;;;8.60;;
81209;SDS011;70685;52.496;13.420;2023-08-06T09:48:08;9.70;;;9.05;;
81209;SDS011;70685;52.496;13.420;2023-08-06T09:50:39;22.92;;;20.63;;
81209;SDS011;70685;52.496;13.420;2023-08-06T09:53:07;27.38;;;24.50;;
81209;SDS011;70685;52.496;13.420;2023-08-06T09:55:33;23.00;;;19.70;;
81209;SDS011;70685;52.496;13.420;2023-08-06T09:58:02;21.70;;;19.45;;
81209;SDS011;70685;52.496;13.420;2023-08-06T10:00:30;12.93;;;11.07;;
81209;SDS011;70685;52.496;13.420;2023-08-06T10:02:59;13.25;;;12.20;;
81209;SDS011;70685;52.496;13.420;2023-08-06T10:05:25;11.35;;;10.55;;
81209;SDS011;70685;52.496;13.420;2023-08-06T10:07:52;12.00;;;11.02;;
81209;SDS011;70685;52.496;13.420;2023-08-06T10:10:18;11.32;;;10.60;;
81209;SDS011;70685;52.496;13.420;2023-08-06T10:12:50;12.32;;;11.52;;
81209;SDS011;70685;52.496;13.420;2023-08-06T10:15:21;12.50;;;11.70;;
81209;SDS011;70685;52.496;13.420;2023-08-06T10:17:51;13.25;;;12.15;;
81209;SDS011;70685;52.496;13.420;2023-08-06T10:20:21;13.57;;;12.13;;
81209;SDS011;70685;52.496;13.420;2023-08-06T10:23:09;12.38;;;11.40;;
81209;SDS011;70685;52.496;13.420;2023-08-06T10:25:34;13.40;;;12.45;;
81209;SDS011;70685;52.496;13.420;2023-08-06T10:28:09;17.73;;;16.13;;
81209;SDS011;70685;52.496;13.420;2023-08-06T10:30:44;16.73;;;14.40;;
81209;SDS011;70685;52.496;13.420;2023-08-06T10:33:13;15.35;;;13.70;;
81209;SDS011;70685;52.496;13.420;2023-08-06T10:35:45;20.85;;;18.65;;
81209;SDS011;70685;52.496;13.420;2023-08-06T10:38:19;14.48;;;13.23;;
81209;SDS011;70685;52.496;13.420;2023-08-06T10:43:25;21.65;;;19.55;;
81209;SDS011;70685;52.496;13.420;2023-08-06T10:45:55;16.02;;;14.50;;
81209;SDS011;70685;52.496;13.420;2023-08-06T10:48:34;18.67;;;16.98;;
81209;SDS011;70685;52.496;13.420;2023-08-06T10:51:01;12.35;;;11.25;;
81209;SDS011;70685;52.496;13.420;2023-08-06T10:53:28;12.30;;;11.40;;
81209;SDS011;70685;52.496;13.420;2023-08-06T10:55:56;54.53;;;39.00;;
81209;SDS011;70685;52.496;13.420;2023-08-06T10:58:22;19.73;;;17.75;;
81209;SDS011;70685;52.496;13.420;2023-08-06T11:00:48;11.98;;;10.98;;
81209;SDS011;70685;52.496;13.420;2023-08-06T11:03:14;12.60;;;10.82;;
81209;SDS011;70685;52.496;13.420;2023-08-06T11:05:40;10.63;;;9.68;;
81209;SDS011;70685;52.496;13.420;2023-08-06T11:08:05;14.65;;;13.25;;
81209;SDS011;70685;52.496;13.420;2023-08-06T11:10:34;13.50;;;12.48;;
81209;SDS011;70685;52.496;13.420;2023-08-06T11:15:29;12.80;;;11.95;;
81209;SDS011;70685;52.496;13.420;2023-08-06T11:17:55;9.52;;;8.75;;
81209;SDS011;70685;52.496;13.420;2023-08-06T11:20:27;9.73;;;9.13;;
81209;SDS011;70685;52.496;13.420;2023-08-06T11:22:53;12.30;;;11.30;;
81209;SDS011;70685;52.496;13.420;2023-08-06T11:25:20;10.63;;;9.70;;
81209;SDS011;70685;52.496;13.420;2023-08-06T11:27:46;11.05;;;10.05;;
81209;SDS011;70685;52.496;13.420;2023-08-06T11:30:14;8.15;;;7.65;;
81209;SDS011;70685;52.496;13.420;2023-08-06T11:32:46;8.65;;;7.95;;
81209;SDS011;70685;52.496;13.420;2023-08-06T11:35:12;7.63;;;7.13;;
81209;SDS011;70685;52.496;13.420;2023-08-06T11:37:39;7.65;;;7.15;;
81209;SDS011;70685;52.496;13.420;2023-08-06T11:40:14;9.05;;;8.35;;
81209;SDS011;70685;52.496;13.420;2023-08-06T11:42:40;8.15;;;7.65;;
81209;SDS011;70685;52.496;13.420;2023-08-06T11:45:15;9.05;;;8.45;;
81209;SDS011;70685;52.496;13.420;2023-08-06T11:47:49;6.90;;;6.50;;
81209;SDS011;70685;52.496;13.420;2023-08-06T11:50:22;11.02;;;10.20;;
81209;SDS011;70685;52.496;13.420;2023-08-06T11:52:57;9.02;;;8.32;;
81209;SDS011;70685;52.496;13.420;2023-08-06T11:55:27;8.18;;;7.68;;
81209;SDS011;70685;52.496;13.420;2023-08-06T11:57:53;11.57;;;10.73;;
81209;SDS011;70685;52.496;13.420;2023-08-06T12:02:49;9.25;;;8.50;;
81209;SDS011;70685;52.496;13.420;2023-08-06T12:07:46;8.25;;;7.65;;
81209;SDS011;70685;52.496;13.420;2023-08-06T12:12:41;8.95;;;8.13;;
81209;SDS011;70685;52.496;13.420;2023-08-06T12:15:07;9.48;;;8.77;;
81209;SDS011;70685;52.496;13.420;2023-08-06T12:17:34;9.80;;;9.20;;
81209;SDS011;70685;52.496;13.420;2023-08-06T12:20:00;8.80;;;8.18;;
81209;SDS011;70685;52.496;13.420;2023-08-06T12:22:27;9.05;;;8.45;;
81209;SDS011;70685;52.496;13.420;2023-08-06T12:24:52;8.93;;;8.23;;
81209;SDS011;70685;52.496;13.420;2023-08-06T12:27:20;8.98;;;8.32;;
81209;SDS011;70685;52.496;13.420;2023-08-06T12:29:49;9.07;;;8.48;;
81209;SDS011;70685;52.496;13.420;2023-08-06T12:32:19;9.43;;;8.73;;
81209;SDS011;70685;52.496;13.420;2023-08-06T12:34:45;9.15;;;8.38;;
81209;SDS011;70685;52.496;13.420;2023-08-06T12:37:11;9.90;;;9.30;;
81209;SDS011;70685;52.496;13.420;2023-08-06T12:39:37;9.30;;;8.70;;
81209;SDS011;70685;52.496;13.420;2023-08-06T12:42:03;12.10;;;11.10;;
81209;SDS011;70685;52.496;13.420;2023-08-06T12:44:30;10.80;;;10.05;;
81209;SDS011;70685;52.496;13.420;2023-08-06T12:46:57;13.68;;;12.30;;
81209;SDS011;70685;52.496;13.420;2023-08-06T12:49:23;11.18;;;10.30;;
81209;SDS011;70685;52.496;13.420;2023-08-06T12:51:50;14.05;;;12.73;;
81209;SDS011;70685;52.496;13.420;2023-08-06T12:54:21;11.73;;;10.82;;
81209;SDS011;70685;52.496;13.420;2023-08-06T12:56:47;13.43;;;10.23;;
81209;SDS011;70685;52.496;13.420;2023-08-06T12:59:14;10.45;;;9.75;;
81209;SDS011;70685;52.496;13.420;2023-08-06T13:01:40;10.27;;;9.43;;
81209;SDS011;70685;52.496;13.420;2023-08-06T13:04:06;11.30;;;10.23;;
81209;SDS011;70685;52.496;13.420;2023-08-06T13:06:32;11.27;;;10.45;;
81209;SDS011;70685;52.496;13.420;2023-08-06T13:09:04;10.82;;;10.05;;
81209;SDS011;70685;52.496;13.420;2023-08-06T13:11:39;10.63;;;9.50;;
81209;SDS011;70685;52.496;13.420;2023-08-06T13:14:07;10.18;;;9.27;;
81209;SDS011;70685;52.496;13.420;2023-08-06T13:16:35;10.95;;;9.93;;
81209;SDS011;70685;52.496;13.420;2023-08-06T13:19:02;10.07;;;9.13;;
81209;SDS011;70685;52.496;13.420;2023-08-06T13:21:34;10.18;;;8.95;;
81209;SDS011;70685;52.496;13.420;2023-08-06T13:24:16;10.07;;;9.27;;
81209;SDS011;70685;52.496;13.420;2023-08-06T13:26:47;9.35;;;8.55;;
81209;SDS011;70685;52.496;13.420;2023-08-06T13:29:22;11.20;;;10.15;;
81209;SDS011;70685;52.496;13.420;2023-08-06T13:31:51;11.30;;;10.30;;
81209;SDS011;70685;52.496;13.420;2023-08-06T13:34:16;11.23;;;10.43;;
81209;SDS011;70685;52.496;13.420;2023-08-06T13:36:42;11.85;;;10.60;;
81209;SDS011;70685;52.496;13.420;2023-08-06T13:39:13;12.52;;;11.48;;
81209;SDS011;70685;52.496;13.420;2023-08-06T13:41:41;14.77;;;13.40;;
81209;SDS011;70685;52.496;13.420;2023-08-06T13:44:09;13.10;;;11.90;;
81209;SDS011;70685;52.496;13.420;2023-08-06T13:46:36;12.23;;;11.32;;
81209;SDS011;70685;52.496;13.420;2023-08-06T13:49:03;12.25;;;11.20;;
81209;SDS011;70685;52.496;13.420;2023-08-06T13:51:31;11.52;;;10.73;;
81209;SDS011;70685;52.496;13.420;2023-08-06T13:56:28;10.48;;;9.57;;
81209;SDS011;70685;52.496;13.420;2023-08-06T13:58:55;10.45;;;9.32;;
81209;SDS011;70685;52.496;13.420;2023-08-06T14:01:20;12.77;;;11.45;;
81209;SDS011;70685;52.496;13.420;2023-08-06T14:03:46;10.85;;;9.75;;
81209;SDS011;70685;52.496;13.420;2023-08-06T14:06:12;14.25;;;11.02;;
81209;SDS011;70685;52.496;13.420;2023-08-06T14:08:37;19.65;;;16.13;;
81209;SDS011;70685;52.496;13.420;2023-08-06T14:11:03;15.77;;;13.38;;
81209;SDS011;70685;52.496;13.420;2023-08-06T14:13:31;14.23;;;13.00;;
81209;SDS011;70685;52.496;13.420;2023-08-06T14:15:56;12.80;;;11.25;;
81209;SDS011;70685;52.496;13.420;2023-08-06T14:18:22;12.07;;;10.88;;
81209;SDS011;70685;52.496;13.420;2023-08-06T14:20:50;12.63;;;11.63;;
81209;SDS011;70685;52.496;13.420;2023-08-06T14:23:15;15.57;;;13.88;;
81209;SDS011;70685;52.496;13.420;2023-08-06T14:25:41;13.70;;;12.52;;
81209;SDS011;70685;52.496;13.420;2023-08-06T14:28:07;12.95;;;11.63;;
81209;SDS011;70685;52.496;13.420;2023-08-06T14:30:33;14.02;;;11.45;;
81209;SDS011;70685;52.496;13.420;2023-08-06T14:32:59;10.05;;;9.25;;
81209;SDS011;70685;52.496;13.420;2023-08-06T14:35:25;15.70;;;10.25;;
81209;SDS011;70685;52.496;13.420;2023-08-06T14:37:51;12.15;;;8.98;;
81209;SDS011;70685;52.496;13.420;2023-08-06T14:40:17;8.60;;;7.88;;
81209;SDS011;70685;52.496;13.420;2023-08-06T14:42:45;7.47;;;6.97;;
81209;SDS011;70685;52.496;13.420;2023-08-06T14:45:13;11.18;;;10.15;;
81209;SDS011;70685;52.496;13.420;2023-08-06T14:47:38;9.80;;;9.05;;
81209;SDS011;70685;52.496;13.420;2023-08-06T14:50:04;9.68;;;8.70;;
81209;SDS011;70685;52.496;13.420;2023-08-06T14:52:32;11.67;;;9.83;;
81209;SDS011;70685;52.496;13.420;2023-08-06T14:54:59;11.80;;;10.60;;
81209;SDS011;70685;52.496;13.420;2023-08-06T14:57:28;9.43;;;8.52;;
81209;SDS011;70685;52.496;13.420;2023-08-06T14:59:55;13.05;;;11.65;;
81209;SDS011;70685;52.496;13.420;2023-08-06T15:02:23;15.10;;;11.45;;
81209;SDS011;70685;52.496;13.420;2023-08-06T15:04:48;7.20;;;6.60;;